createdAt,value
2023-04-24T00:01:43.091Z,6.10
2023-04-24T00:04:12.185Z,5.80
2023-04-24T00:06:41.818Z,5.57
2023-04-24T00:09:11.925Z,6.07
2023-04-24T00:11:38.969Z,5.83
2023-04-24T00:14:05.937Z,5.40
2023-04-24T00:16:33.283Z,5.93
2023-04-24T00:19:01.884Z,5.50
2023-04-24T00:21:29.090Z,6.00
2023-04-24T00:23:56.051Z,5.70
2023-04-24T00:26:24.625Z,6.10
2023-04-24T00:28:51.621Z,6.00
2023-04-24T00:31:20.208Z,5.53
2023-04-24T00:33:47.228Z,6.37
2023-04-24T00:36:14.813Z,6.97
2023-04-24T00:38:41.945Z,6.40
2023-04-24T00:41:09.461Z,5.77
2023-04-24T00:43:37.687Z,5.87
2023-04-24T00:46:05.120Z,5.87
2023-04-24T00:48:32.683Z,6.00
2023-04-24T00:50:59.808Z,5.87
2023-04-24T00:53:27.201Z,5.73
2023-04-24T00:55:54.312Z,6.03
2023-04-24T00:58:21.853Z,6.13
2023-04-24T01:00:54.153Z,6.13
2023-04-24T01:03:23.772Z,6.33
2023-04-24T01:05:51.140Z,6.00
2023-04-24T01:08:18.792Z,6.20
2023-04-24T01:10:47.108Z,6.60
2023-04-24T01:13:15.845Z,6.60
2023-04-24T01:15:45.697Z,7.27
2023-04-24T01:18:13.835Z,6.50
2023-04-24T01:20:43.177Z,6.80
2023-04-24T01:23:10.861Z,7.70
2023-04-24T01:25:38.230Z,6.07
2023-04-24T01:28:05.292Z,7.37
2023-04-24T01:30:33.072Z,6.37
2023-04-24T01:33:00.390Z,7.00
2023-04-24T01:35:27.864Z,6.70
2023-04-24T01:37:54.856Z,7.33
2023-04-24T01:40:22.910Z,8.23
2023-04-24T01:42:50.402Z,6.53
2023-04-24T01:45:19.973Z,6.97
2023-04-24T01:47:47.764Z,7.30
2023-04-24T01:50:19.685Z,6.20
2023-04-24T01:52:46.832Z,6.57
2023-04-24T01:55:14.240Z,6.40
2023-04-24T01:57:43.718Z,7.17
2023-04-24T02:00:13.255Z,6.30
2023-04-24T02:02:47.418Z,6.53
2023-04-24T02:05:15.559Z,5.93
2023-04-24T02:07:42.973Z,7.27
2023-04-24T02:10:11.144Z,6.20
2023-04-24T02:12:43.065Z,7.57
2023-04-24T02:15:10.771Z,6.67
2023-04-24T02:17:38.383Z,6.50
2023-04-24T02:20:09.370Z,7.07
2023-04-24T02:22:36.339Z,6.33
2023-04-24T02:25:03.740Z,5.90
2023-04-24T02:27:31.309Z,5.67
2023-04-24T02:29:58.234Z,4.83
2023-04-24T02:32:26.527Z,4.57
2023-04-24T02:34:53.481Z,4.67
2023-04-24T02:37:20.443Z,4.30
2023-04-24T02:39:47.383Z,4.40
2023-04-24T02:42:15.026Z,4.80
2023-04-24T02:44:42.989Z,4.53
2023-04-24T02:47:11.735Z,4.50
2023-04-24T02:49:38.673Z,4.53
2023-04-24T02:52:06.305Z,5.70
2023-04-24T02:54:33.283Z,4.73
2023-04-24T02:57:02.206Z,4.23
2023-04-24T02:59:29.978Z,4.63
2023-04-24T03:01:59.206Z,4.23
2023-04-24T03:04:26.847Z,4.20
2023-04-24T03:06:55.821Z,4.20
2023-04-24T03:09:23.181Z,4.40
2023-04-24T03:11:50.545Z,4.20
2023-04-24T03:14:19.065Z,4.27
2023-04-24T03:16:47.208Z,4.03
2023-04-24T03:19:16.873Z,4.30
2023-04-24T03:22:03.664Z,4.33
2023-04-24T03:24:32.983Z,4.27
2023-04-24T03:27:01.255Z,4.00
2023-04-24T03:29:48.341Z,4.50
2023-04-24T03:32:20.079Z,4.30
2023-04-24T03:34:49.795Z,4.17
2023-04-24T03:37:17.537Z,4.20
2023-04-24T03:39:53.392Z,3.87
2023-04-24T03:42:24.544Z,5.40
2023-04-24T03:44:55.968Z,4.03
2023-04-24T03:47:28.447Z,4.17
2023-04-24T03:49:59.202Z,3.90
2023-04-24T03:52:26.240Z,3.77
2023-04-24T03:54:53.369Z,3.93
2023-04-24T03:57:20.647Z,5.00
2023-04-24T04:00:01.046Z,4.07
2023-04-24T04:02:29.198Z,4.10
2023-04-24T04:04:56.318Z,4.13
2023-04-24T04:07:23.289Z,4.00
2023-04-24T04:09:50.499Z,3.80
2023-04-24T04:12:17.672Z,4.17
2023-04-24T04:14:45.212Z,3.80
2023-04-24T04:17:12.156Z,3.57
2023-04-24T04:19:39.198Z,3.97
2023-04-24T04:22:09.382Z,3.60
2023-04-24T04:24:48.855Z,3.50
2023-04-24T04:27:17.687Z,3.57
2023-04-24T04:29:54.705Z,3.77
2023-04-24T04:32:22.634Z,3.60
2023-04-24T04:34:50.462Z,4.20
2023-04-24T04:37:18.281Z,3.43
2023-04-24T04:39:54.763Z,4.20
2023-04-24T04:42:25.705Z,3.33
2023-04-24T04:44:52.937Z,3.57
2023-04-24T04:47:26.260Z,3.80
2023-04-24T04:49:57.098Z,3.30
2023-04-24T04:52:27.722Z,3.70
2023-04-24T04:55:22.525Z,4.47
2023-04-24T04:58:08.941Z,3.87
2023-04-24T05:00:38.451Z,3.10
2023-04-24T05:03:21.227Z,3.33
2023-04-24T05:05:59.336Z,3.30
2023-04-24T05:08:27.912Z,3.40
2023-04-24T05:10:56.512Z,3.60
2023-04-24T05:13:38.409Z,5.23
2023-04-24T05:16:12.205Z,3.43
2023-04-24T05:18:41.786Z,3.73
2023-04-24T05:21:12.212Z,3.90
2023-04-24T05:23:41.938Z,3.83
2023-04-24T05:26:09.051Z,4.17
2023-04-24T05:28:37.851Z,3.90
2023-04-24T05:31:10.874Z,4.07
2023-04-24T05:33:41.649Z,3.47
2023-04-24T05:36:08.674Z,3.70
2023-04-24T05:38:35.755Z,4.30
2023-04-24T05:41:02.767Z,3.33
2023-04-24T05:43:30.143Z,3.50
2023-04-24T05:45:58.203Z,3.33
2023-04-24T05:48:25.573Z,6.10
2023-04-24T05:50:53.620Z,3.40
2023-04-24T05:53:21.163Z,3.30
2023-04-24T05:55:49.049Z,6.03
2023-04-24T05:58:16.456Z,3.37
2023-04-24T06:00:45.506Z,3.37
2023-04-24T06:03:13.012Z,3.40
2023-04-24T06:05:41.440Z,3.20
2023-04-24T06:08:09.252Z,3.30
2023-04-24T06:10:44.114Z,3.20
2023-04-24T06:13:12.291Z,3.07
2023-04-24T06:15:44.432Z,3.10
2023-04-24T06:18:17.206Z,3.23
2023-04-24T06:20:46.990Z,3.37
2023-04-24T06:23:13.934Z,3.97
2023-04-24T06:25:40.982Z,2.90
2023-04-24T06:28:07.933Z,3.23
2023-04-24T06:30:36.018Z,3.20
2023-04-24T06:33:16.746Z,3.47
2023-04-24T06:35:48.551Z,3.53
2023-04-24T06:38:15.570Z,3.13
2023-04-24T06:40:45.056Z,3.70
2023-04-24T06:43:12.068Z,2.93
2023-04-24T06:45:40.859Z,2.63
2023-04-24T06:48:10.672Z,2.87
2023-04-24T06:50:38.297Z,2.67
2023-04-24T06:53:05.288Z,2.37
2023-04-24T06:55:32.316Z,3.10
2023-04-24T06:57:59.729Z,2.37
2023-04-24T07:00:26.889Z,2.77
2023-04-24T07:02:53.861Z,2.60
2023-04-24T07:05:21.610Z,2.23
2023-04-24T07:07:50.047Z,2.30
2023-04-24T07:10:17.153Z,2.47
2023-04-24T07:12:48.053Z,2.40
2023-04-24T07:15:16.037Z,2.70
2023-04-24T07:17:45.404Z,2.60
2023-04-24T07:20:12.800Z,2.40
2023-04-24T07:22:40.072Z,2.40
2023-04-24T07:25:08.020Z,2.20
2023-04-24T07:27:36.964Z,2.47
2023-04-24T07:30:06.571Z,2.33
2023-04-24T07:32:33.503Z,2.10
2023-04-24T07:35:01.012Z,2.83
2023-04-24T07:37:28.879Z,2.17
2023-04-24T07:39:56.419Z,2.23
2023-04-24T07:42:25.484Z,1.90
2023-04-24T07:44:52.706Z,2.73
2023-04-24T07:47:22.771Z,2.10
2023-04-24T07:49:50.304Z,2.00
2023-04-24T07:52:18.278Z,2.47
2023-04-24T07:54:45.698Z,3.30
2023-04-24T07:57:12.901Z,2.33
2023-04-24T07:59:39.857Z,2.73
2023-04-24T08:02:07.614Z,2.40
2023-04-24T08:04:34.936Z,2.10
2023-04-24T08:07:02.000Z,2.40
2023-04-24T08:09:30.246Z,2.40
2023-04-24T08:11:57.735Z,2.77
2023-04-24T08:14:24.757Z,2.60
2023-04-24T08:16:51.715Z,2.10
2023-04-24T08:19:20.133Z,2.13
2023-04-24T08:21:47.807Z,2.47
2023-04-24T08:24:14.762Z,2.20
2023-04-24T08:26:41.864Z,2.07
2023-04-24T08:29:11.391Z,2.13
2023-04-24T08:31:39.146Z,2.33
2023-04-24T08:34:06.245Z,1.53
2023-04-24T08:36:46.042Z,1.57
2023-04-24T08:39:16.954Z,1.57
2023-04-24T08:41:44.664Z,1.40
2023-04-24T08:44:12.568Z,2.03
2023-04-24T08:46:43.281Z,1.40
2023-04-24T08:49:10.364Z,1.73
2023-04-24T08:51:38.937Z,1.23
2023-04-24T08:54:05.999Z,1.43
2023-04-24T08:56:38.904Z,1.10
2023-04-24T08:59:07.583Z,1.13
2023-04-24T09:01:36.128Z,1.23
2023-04-24T09:04:05.557Z,1.00
2023-04-24T09:06:33.446Z,1.63
2023-04-24T09:09:04.892Z,0.77
2023-04-24T09:11:33.708Z,1.20
2023-04-24T09:14:02.857Z,1.07
2023-04-24T09:16:30.967Z,1.80
2023-04-24T09:18:58.024Z,0.63
2023-04-24T09:21:32.619Z,1.00
2023-04-24T09:24:04.476Z,0.80
2023-04-24T09:26:33.683Z,1.33
2023-04-24T09:29:02.907Z,1.40
2023-04-24T09:31:31.087Z,2.23
2023-04-24T09:34:12.342Z,1.73
2023-04-24T09:36:44.568Z,1.20
2023-04-24T09:39:14.755Z,0.90
2023-04-24T09:41:50.044Z,1.53
2023-04-24T09:44:19.067Z,1.73
2023-04-24T09:46:49.909Z,1.57
2023-04-24T09:49:23.120Z,1.00
2023-04-24T09:51:50.165Z,1.27
2023-04-24T09:54:18.291Z,1.10
2023-04-24T09:56:48.709Z,1.40
2023-04-24T09:59:17.848Z,2.33
2023-04-24T10:01:45.928Z,1.17
2023-04-24T10:04:25.555Z,1.63
2023-04-24T10:06:55.273Z,1.63
2023-04-24T10:09:27.589Z,0.87
2023-04-24T10:11:56.395Z,1.80
2023-04-24T10:14:25.114Z,1.87
2023-04-24T10:16:57.676Z,1.03
2023-04-24T10:19:27.559Z,0.83
2023-04-24T10:21:56.813Z,1.40
2023-04-24T10:24:23.864Z,1.00
2023-04-24T10:26:51.070Z,1.47
2023-04-24T10:29:20.050Z,1.10
2023-04-24T10:31:48.179Z,1.27
2023-04-24T10:34:19.350Z,1.10
2023-04-24T10:36:51.707Z,1.20
2023-04-24T10:39:20.813Z,1.30
2023-04-24T10:41:58.796Z,1.60
2023-04-24T10:44:26.479Z,1.30
2023-04-24T10:46:57.228Z,1.30
2023-04-24T10:49:32.272Z,1.17
2023-04-24T10:52:06.539Z,1.23
2023-04-24T10:54:43.050Z,1.40
2023-04-24T10:57:23.115Z,1.23
2023-04-24T11:00:19.501Z,1.73
2023-04-24T11:02:53.892Z,1.63
2023-04-24T11:05:23.175Z,1.30
2023-04-24T11:08:19.781Z,1.20
2023-04-24T11:11:11.051Z,1.20
2023-04-24T11:13:59.014Z,1.93
2023-04-24T11:16:42.489Z,1.40
2023-04-24T11:19:20.675Z,1.93
2023-04-24T11:22:05.764Z,1.60
2023-04-24T11:24:39.108Z,1.87
2023-04-24T11:27:22.547Z,1.30
2023-04-24T11:29:58.788Z,2.30
2023-04-24T11:32:27.876Z,1.90
2023-04-24T11:34:57.521Z,1.23
2023-04-24T11:37:49.419Z,1.50
2023-04-24T11:40:27.115Z,1.63
2023-04-24T11:42:57.915Z,2.00
2023-04-24T11:45:27.238Z,1.40
2023-04-24T11:47:55.860Z,1.50
2023-04-24T11:50:25.084Z,1.80
2023-04-24T11:53:00.305Z,2.73
2023-04-24T11:55:29.389Z,1.70
2023-04-24T11:57:58.674Z,2.00
2023-04-24T12:00:30.756Z,2.20
2023-04-24T12:03:12.633Z,2.37
2023-04-24T12:05:40.725Z,2.60
2023-04-24T12:08:08.280Z,2.30
2023-04-24T12:10:36.314Z,2.40
2023-04-24T12:13:03.675Z,2.60
2023-04-24T12:15:30.894Z,4.53
2023-04-24T12:18:02.676Z,3.70
2023-04-24T12:20:32.643Z,5.00
2023-04-24T12:23:04.008Z,4.60
2023-04-24T12:25:32.829Z,4.50
2023-04-24T12:28:06.325Z,4.37
2023-04-24T12:30:35.845Z,4.03
2023-04-24T12:33:04.891Z,3.90
2023-04-24T12:35:34.977Z,3.30
2023-04-24T12:38:15.101Z,2.70
2023-04-24T12:40:43.990Z,2.20
2023-04-24T12:43:17.104Z,2.10
2023-04-24T12:45:49.177Z,1.70
2023-04-24T12:48:17.595Z,2.23
2023-04-24T12:50:46.760Z,4.83
2023-04-24T12:53:16.795Z,3.63
2023-04-24T12:55:44.293Z,6.13
2023-04-24T12:58:11.269Z,6.70
2023-04-24T13:00:42.913Z,9.70
2023-04-24T13:03:10.142Z,9.33
2023-04-24T13:05:38.433Z,12.27
2023-04-24T13:08:06.368Z,11.07
2023-04-24T13:10:35.628Z,7.43
2023-04-24T13:13:04.535Z,5.60
2023-04-24T13:15:31.640Z,4.50
2023-04-24T13:17:58.725Z,3.70
2023-04-24T13:20:26.354Z,4.10
2023-04-24T13:22:53.893Z,2.97
2023-04-24T13:25:21.500Z,2.60
2023-04-24T13:27:48.491Z,2.37
2023-04-24T13:30:15.458Z,2.37
2023-04-24T13:32:42.617Z,2.73
2023-04-24T13:35:10.098Z,3.60
2023-04-24T13:37:37.087Z,3.87
2023-04-24T13:40:08.089Z,4.40
2023-04-24T13:42:35.405Z,4.30
2023-04-24T13:45:13.876Z,5.30
2023-04-24T13:47:51.859Z,4.50
2023-04-24T13:50:22.413Z,2.80
2023-04-24T13:52:50.432Z,3.70
2023-04-24T13:55:17.564Z,4.87
2023-04-24T13:57:44.680Z,4.10
2023-04-24T14:00:12.214Z,2.90
2023-04-24T14:02:39.900Z,2.73
2023-04-24T14:05:07.620Z,2.43
2023-04-24T14:07:34.859Z,4.20
2023-04-24T14:10:01.889Z,2.70
2023-04-24T14:12:29.364Z,3.70
2023-04-24T14:14:56.379Z,4.53
2023-04-24T14:17:23.625Z,5.70
2023-04-24T14:19:51.488Z,4.30
2023-04-24T14:22:18.960Z,3.50
2023-04-24T14:24:45.937Z,5.40
2023-04-24T14:27:16.293Z,6.33
2023-04-24T14:29:43.258Z,6.33
2023-04-24T14:32:10.224Z,5.30
2023-04-24T14:34:37.211Z,4.13
2023-04-24T14:37:04.140Z,4.10
2023-04-24T14:39:31.369Z,6.83
2023-04-24T14:41:58.566Z,15.00
2023-04-24T14:44:25.948Z,17.30
2023-04-24T14:46:53.081Z,8.00
2023-04-24T14:49:20.118Z,6.60
2023-04-24T14:51:48.183Z,3.23
2023-04-24T14:54:15.142Z,2.90
2023-04-24T14:56:45.339Z,3.30
2023-04-24T14:59:12.766Z,3.43
2023-04-24T15:01:39.977Z,3.27
2023-04-24T15:04:07.828Z,2.77
2023-04-24T15:06:34.869Z,3.53
2023-04-24T15:09:02.061Z,4.27
2023-04-24T15:11:29.339Z,4.13
2023-04-24T15:13:58.430Z,4.70
2023-04-24T15:16:27.078Z,3.50
2023-04-24T15:18:54.028Z,3.03
2023-04-24T15:21:21.235Z,3.87
2023-04-24T15:23:48.434Z,3.30
2023-04-24T15:26:15.718Z,3.23
2023-04-24T15:28:42.681Z,2.40
2023-04-24T15:31:10.990Z,2.07
2023-04-24T15:33:40.627Z,2.70
2023-04-24T15:36:09.232Z,5.53
2023-04-24T15:38:36.750Z,8.03
2023-04-24T15:41:03.751Z,16.03
2023-04-24T15:43:32.195Z,13.97
2023-04-24T15:45:59.492Z,4.53
2023-04-24T15:48:27.091Z,2.60
2023-04-24T15:50:54.128Z,2.47
2023-04-24T15:53:24.546Z,2.20
2023-04-24T15:55:53.742Z,2.13
2023-04-24T15:58:21.844Z,1.90
2023-04-24T16:00:49.090Z,2.73
2023-04-24T16:03:16.886Z,2.63
2023-04-24T16:05:45.588Z,2.67
2023-04-24T16:08:14.310Z,2.40
2023-04-24T16:10:42.238Z,2.33
2023-04-24T16:13:09.752Z,1.83
2023-04-24T16:15:39.757Z,3.53
2023-04-24T16:18:06.922Z,1.77
2023-04-24T16:20:33.886Z,2.00
2023-04-24T16:23:00.965Z,2.23
2023-04-24T16:25:28.438Z,2.77
2023-04-24T16:27:57.269Z,1.67
2023-04-24T16:30:25.762Z,1.87
2023-04-24T16:32:53.191Z,2.30
2023-04-24T16:35:22.356Z,2.37
2023-04-24T16:37:49.708Z,3.07
2023-04-24T16:40:16.685Z,2.33
2023-04-24T16:42:43.805Z,2.10
2023-04-24T16:45:11.771Z,3.07
2023-04-24T16:47:40.868Z,2.20
2023-04-24T16:50:10.276Z,2.17
2023-04-24T16:52:38.400Z,3.07
2023-04-24T16:55:09.141Z,5.50
2023-04-24T16:57:36.518Z,5.97
2023-04-24T17:00:04.788Z,6.60
2023-04-24T17:02:32.404Z,8.67
2023-04-24T17:05:00.019Z,10.33
2023-04-24T17:07:28.570Z,7.97
2023-04-24T17:09:56.098Z,7.40
2023-04-24T17:12:24.558Z,4.50
2023-04-24T17:14:51.639Z,3.50
2023-04-24T17:17:20.649Z,3.53
2023-04-24T17:19:51.433Z,5.30
2023-04-24T17:22:19.168Z,3.60
2023-04-24T17:24:46.750Z,3.67
2023-04-24T17:27:16.701Z,3.23
2023-04-24T17:29:44.041Z,2.90
2023-04-24T17:32:15.758Z,3.67
2023-04-24T17:34:43.541Z,4.00
2023-04-24T17:37:11.274Z,3.37
2023-04-24T17:39:39.111Z,3.47
2023-04-24T17:42:08.598Z,3.47
2023-04-24T17:44:37.121Z,3.53
2023-04-24T17:47:05.338Z,3.73
2023-04-24T17:49:33.384Z,3.33
2023-04-24T17:52:01.913Z,3.87
2023-04-24T17:54:30.686Z,4.00
2023-04-24T17:56:58.464Z,3.57
2023-04-24T17:59:26.649Z,4.20
2023-04-24T18:01:54.599Z,3.30
2023-04-24T18:04:24.460Z,3.20
2023-04-24T18:06:51.836Z,4.30
2023-04-24T18:09:21.156Z,3.37
2023-04-24T18:11:50.083Z,3.70
2023-04-24T18:14:17.913Z,3.03
2023-04-24T18:16:47.115Z,2.77
2023-04-24T18:19:14.706Z,2.90
2023-04-24T18:21:43.617Z,2.30
2023-04-24T18:24:13.101Z,3.63
2023-04-24T18:26:40.924Z,3.00
2023-04-24T18:29:10.355Z,2.23
2023-04-24T18:31:37.943Z,2.13
2023-04-24T18:34:06.572Z,1.97
2023-04-24T18:36:34.209Z,2.33
2023-04-24T18:39:02.156Z,1.90
2023-04-24T18:41:30.307Z,2.10
2023-04-24T18:44:00.773Z,2.00
2023-04-24T18:46:28.601Z,2.20
2023-04-24T18:48:57.717Z,2.30
2023-04-24T18:51:26.447Z,2.63
2023-04-24T18:53:56.859Z,2.90
2023-04-24T18:56:27.285Z,2.80
2023-04-24T18:58:56.724Z,3.67
2023-04-24T19:01:26.221Z,5.20
2023-04-24T19:03:54.194Z,4.30
2023-04-24T19:06:24.220Z,4.20
2023-04-24T19:08:53.775Z,3.57
2023-04-24T19:11:22.381Z,3.30
2023-04-24T19:13:51.739Z,4.83
2023-04-24T19:16:23.393Z,3.53
2023-04-24T19:18:53.422Z,3.67
2023-04-24T19:21:21.954Z,3.40
2023-04-24T19:23:51.076Z,2.80
2023-04-24T19:26:18.801Z,3.20
2023-04-24T19:28:49.530Z,2.90
2023-04-24T19:31:18.609Z,3.00
2023-04-24T19:33:50.651Z,2.47
2023-04-24T19:36:20.605Z,2.60
2023-04-24T19:38:52.342Z,2.57
2023-04-24T19:41:21.649Z,2.90
2023-04-24T19:43:51.030Z,2.50
2023-04-24T19:46:19.719Z,2.40
2023-04-24T19:48:50.700Z,2.80
2023-04-24T19:51:20.206Z,2.30
2023-04-24T19:53:51.201Z,2.40
2023-04-24T19:56:19.696Z,2.60
2023-04-24T19:58:48.988Z,2.90
2023-04-24T20:01:24.491Z,2.80
2023-04-24T20:03:52.433Z,2.50
2023-04-24T20:06:25.178Z,2.50
2023-04-24T20:08:55.360Z,2.50
2023-04-24T20:11:24.730Z,2.40
2023-04-24T20:13:53.900Z,2.40
2023-04-24T20:16:25.886Z,2.93
2023-04-24T20:18:58.369Z,2.40
2023-04-24T20:21:29.241Z,2.47
2023-04-24T20:23:57.858Z,2.27
2023-04-24T20:26:25.911Z,2.20
2023-04-24T20:28:54.415Z,2.23
2023-04-24T20:31:21.476Z,2.63
2023-04-24T20:33:49.865Z,2.40
2023-04-24T20:36:16.767Z,2.73
2023-04-24T20:38:47.866Z,4.17
2023-04-24T20:41:17.793Z,2.20
2023-04-24T20:43:47.167Z,2.40
2023-04-24T20:46:18.271Z,2.70
2023-04-24T20:48:51.024Z,2.20
2023-04-24T20:51:21.300Z,2.50
2023-04-24T20:53:50.636Z,2.50
2023-04-24T20:56:21.188Z,2.13
2023-04-24T20:58:52.028Z,2.30
2023-04-24T21:01:26.043Z,2.43
2023-04-24T21:03:58.128Z,2.40
2023-04-24T21:06:26.951Z,2.30
2023-04-24T21:08:55.680Z,2.23
2023-04-24T21:11:26.433Z,2.23
2023-04-24T21:13:56.025Z,2.83
2023-04-24T21:16:36.118Z,2.40
2023-04-24T21:19:03.529Z,2.40
2023-04-24T21:21:34.066Z,3.10
2023-04-24T21:24:08.200Z,2.50
2023-04-24T21:26:35.883Z,3.97
2023-04-24T21:29:05.613Z,2.83
2023-04-24T21:31:34.026Z,2.77
2023-04-24T21:34:02.183Z,2.93
2023-04-24T21:36:33.904Z,3.03
2023-04-24T21:39:02.183Z,2.40
2023-04-24T21:41:31.087Z,2.60
2023-04-24T21:44:01.660Z,2.50
2023-04-24T21:46:34.579Z,2.70
2023-04-24T21:49:02.056Z,2.47
2023-04-24T21:51:31.436Z,2.73
2023-04-24T21:53:59.840Z,2.50
2023-04-24T21:56:29.837Z,2.43
2023-04-24T21:58:59.154Z,2.50
2023-04-24T22:02:21.451Z,2.60
2023-04-24T22:05:18.309Z,2.93
2023-04-24T22:07:50.338Z,2.50
2023-04-24T22:10:23.202Z,3.47
2023-04-24T22:12:52.839Z,2.30
2023-04-24T22:15:22.113Z,2.43
2023-04-24T22:17:53.326Z,2.43
2023-04-24T22:20:23.304Z,2.40
2023-04-24T22:22:57.397Z,2.77
2023-04-24T22:25:28.237Z,2.30
2023-04-24T22:27:56.859Z,2.20
2023-04-24T22:30:28.225Z,2.40
2023-04-24T22:32:59.078Z,2.50
2023-04-24T22:35:30.479Z,2.50
2023-04-24T22:37:59.686Z,2.50
2023-04-24T22:40:30.160Z,3.10
2023-04-24T22:43:10.144Z,2.40
2023-04-24T22:45:40.646Z,2.53
2023-04-24T22:48:07.858Z,2.70
2023-04-24T22:50:40.876Z,2.70
2023-04-24T22:53:12.203Z,2.83
2023-04-24T22:55:41.924Z,3.67
2023-04-24T22:58:12.711Z,2.47
2023-04-24T23:00:42.234Z,2.60
2023-04-24T23:03:09.345Z,2.70
2023-04-24T23:05:40.649Z,2.70
2023-04-24T23:08:09.424Z,3.00
2023-04-24T23:10:38.316Z,2.97
2023-04-24T23:13:06.520Z,2.40
2023-04-24T23:15:37.619Z,2.80
2023-04-24T23:18:08.169Z,2.70
2023-04-24T23:20:38.103Z,3.50
2023-04-24T23:23:08.236Z,2.67
2023-04-24T23:25:35.807Z,3.77
2023-04-24T23:28:05.686Z,3.30
2023-04-24T23:30:34.075Z,2.87
2023-04-24T23:33:03.097Z,2.63
2023-04-24T23:35:34.469Z,2.80
2023-04-24T23:38:04.814Z,3.30
2023-04-24T23:40:34.736Z,2.97
2023-04-24T23:43:07.412Z,3.17
2023-04-24T23:45:38.088Z,3.10
2023-04-24T23:48:06.102Z,2.77
2023-04-24T23:50:38.199Z,2.70
2023-04-24T23:53:06.280Z,3.60
2023-04-24T23:55:35.058Z,2.73
2023-04-24T23:58:02.322Z,2.60
